Time;durP1;ratioP1;P1;durP2;ratioP2;P2;SDS_P1;SDS_P2;PMS_P1;PMS_P2;Temp;Humidity;BMP_temperature;BMP_pressure;BME280_temperature;BME280_humidity;BME280_pressure;Samples;Min_cycle;Max_cycle;Signal;HPM_P1;HPM_P2
2023/05/02 00:02:11;;;;;;;15.77;14.88;;;;;;;;;;5000806;28;20042;-47
2023/05/02 00:04:37;;;;;;;17.33;16.33;;;;;;;;;;4997865;28;20053;-52
2023/05/02 00:07:02;;;;;;;17.50;16.50;;;;;;;;;;4999461;28;20111;-49
2023/05/02 00:09:28;;;;;;;17.35;16.05;;;;;;;;;;4997176;28;20029;-51
2023/05/02 00:11:53;;;;;;;18.13;17.13;;;;;;;;;;4997156;28;20129;-48
2023/05/02 00:14:19;;;;;;;19.58;18.48;;;;;;;;;;4984762;28;20032;-50
2023/05/02 00:16:45;;;;;;;21.77;20.58;;;;;;;;;;4999716;28;20483;-53
2023/05/02 00:19:10;;;;;;;21.10;19.95;;;;;;;;;;4999928;28;20100;-52
2023/05/02 00:21:35;;;;;;;21.17;20.02;;;;;;;;;;4990782;28;20060;-52
2023/05/02 00:24:01;;;;;;;21.83;20.63;;;;;;;;;;4997004;28;20045;-51
2023/05/02 00:26:26;;;;;;;23.85;22.55;;;;;;;;;;5000649;28;20037;-50
2023/05/02 00:28:51;;;;;;;24.95;23.63;;;;;;;;;;4995441;28;20026;-52
2023/05/02 00:31:17;;;;;;;22.27;20.88;;;;;;;;;;5003210;28;20033;-49
2023/05/02 00:33:42;;;;;;;24.17;22.85;;;;;;;;;;4998363;28;20116;-50
2023/05/02 00:36:18;;;;;;;25.13;23.77;;;;;;;;;;5001164;28;20033;-49
2023/05/02 00:38:44;;;;;;;25.08;23.73;;;;;;;;;;4997926;28;20030;-49
2023/05/02 00:41:09;;;;;;;26.63;25.23;;;;;;;;;;5002670;28;20388;-50
2023/05/02 00:43:35;;;;;;;27.27;25.83;;;;;;;;;;4996789;28;20035;-54
2023/05/02 00:46:01;;;;;;;28.92;27.38;;;;;;;;;;4995680;28;20125;-50
2023/05/02 00:48:26;;;;;;;30.92;29.33;;;;;;;;;;4995971;28;20531;-50
2023/05/02 00:50:52;;;;;;;28.35;26.83;;;;;;;;;;4998897;28;20041;-51
2023/05/02 00:53:17;;;;;;;27.63;26.17;;;;;;;;;;5001509;28;20042;-52
2023/05/02 00:55:43;;;;;;;30.95;29.35;;;;;;;;;;5002068;28;20495;-54
2023/05/02 00:58:13;;;;;;;31.30;29.67;;;;;;;;;;4987613;28;20049;-52
2023/05/02 01:00:57;;;;;;;28.05;26.55;;;;;;;;;;4996554;28;20038;-52
2023/05/02 01:03:38;;;;;;;29.23;27.67;;;;;;;;;;4996013;28;20080;-51
2023/05/02 01:06:21;;;;;;;27.75;26.02;;;;;;;;;;4996953;28;20030;-51
2023/05/02 01:08:54;;;;;;;26.05;24.63;;;;;;;;;;4997650;28;20494;-48
2023/05/02 01:11:46;;;;;;;27.83;26.38;;;;;;;;;;4997586;28;20049;-50
2023/05/02 01:14:13;;;;;;;24.73;23.38;;;;;;;;;;4996692;28;20032;-61
2023/05/02 01:16:41;;;;;;;29.33;27.80;;;;;;;;;;5000523;28;20349;-48
2023/05/02 01:19:13;;;;;;;29.40;27.85;;;;;;;;;;4998941;28;20034;-49
2023/05/02 01:21:39;;;;;;;24.15;22.67;;;;;;;;;;4999143;28;20460;-50
2023/05/02 01:24:12;;;;;;;24.75;23.40;;;;;;;;;;4998972;28;20049;-51
2023/05/02 01:27:06;;;;;;;25.35;23.98;;;;;;;;;;4999249;28;20099;-59
2023/05/02 01:29:32;;;;;;;23.50;22.08;;;;;;;;;;5002074;28;20091;-58
2023/05/02 01:31:59;;;;;;;22.90;21.65;;;;;;;;;;4996938;28;20029;-53
2023/05/02 01:34:27;;;;;;;21.55;20.35;;;;;;;;;;4997111;28;20416;-58
2023/05/02 01:36:55;;;;;;;21.98;20.70;;;;;;;;;;5000250;28;20679;-50
2023/05/02 01:39:23;;;;;;;22.48;21.15;;;;;;;;;;4997807;28;20045;-48
2023/05/02 01:41:50;;;;;;;19.83;18.70;;;;;;;;;;5000305;28;20038;-49
2023/05/02 01:44:18;;;;;;;20.40;19.25;;;;;;;;;;4999107;28;20108;-49
2023/05/02 01:46:45;;;;;;;19.48;18.33;;;;;;;;;;4993900;28;20096;-51
2023/05/02 01:49:10;;;;;;;18.95;17.85;;;;;;;;;;4996094;28;20061;-49
2023/05/02 01:51:42;;;;;;;18.80;17.75;;;;;;;;;;4996845;28;20077;-59
2023/05/02 01:54:11;;;;;;;18.15;17.05;;;;;;;;;;4995791;28;20409;-59
2023/05/02 01:56:38;;;;;;;17.33;16.35;;;;;;;;;;4994705;28;20364;-52
2023/05/02 01:59:07;;;;;;;15.93;15.00;;;;;;;;;;4993334;28;20417;-58
2023/05/02 02:01:37;;;;;;;15.82;14.82;;;;;;;;;;4997565;28;20038;-59
2023/05/02 02:04:04;;;;;;;14.63;13.75;;;;;;;;;;5000840;28;20092;-59
2023/05/02 02:06:30;;;;;;;16.02;15.05;;;;;;;;;;4999086;28;20116;-51
2023/05/02 02:08:55;;;;;;;14.98;14.10;;;;;;;;;;4997390;28;20032;-51
2023/05/02 02:11:26;;;;;;;14.07;13.20;;;;;;;;;;4996946;28;20101;-54
2023/05/02 02:13:58;;;;;;;16.35;15.27;;;;;;;;;;4996137;28;20033;-59
2023/05/02 02:16:29;;;;;;;14.25;13.38;;;;;;;;;;4999542;28;20060;-48
2023/05/02 02:18:57;;;;;;;15.10;13.90;;;;;;;;;;5000080;28;20041;-47
2023/05/02 02:21:26;;;;;;;13.35;12.35;;;;;;;;;;4994684;28;20042;-48
2023/05/02 02:23:56;;;;;;;15.70;14.35;;;;;;;;;;4996145;28;20022;-51
2023/05/02 02:26:22;;;;;;;13.48;12.65;;;;;;;;;;4999871;28;20038;-46
2023/05/02 02:28:47;;;;;;;13.52;12.63;;;;;;;;;;4996657;28;20385;-48
2023/05/02 02:31:13;;;;;;;13.02;12.13;;;;;;;;;;5001015;28;20104;-58
2023/05/02 02:33:39;;;;;;;12.48;11.68;;;;;;;;;;4995295;28;20030;-49
2023/05/02 02:36:27;;;;;;;12.50;11.60;;;;;;;;;;4996738;28;20034;-47
2023/05/02 02:39:14;;;;;;;12.20;11.45;;;;;;;;;;4964866;28;20112;-58
2023/05/02 02:42:03;;;;;;;12.63;11.82;;;;;;;;;;4996390;28;20731;-49
2023/05/02 02:44:49;;;;;;;13.30;12.40;;;;;;;;;;4997490;28;20376;-48
2023/05/02 02:47:28;;;;;;;12.98;12.07;;;;;;;;;;4995805;28;20046;-48
2023/05/02 02:50:06;;;;;;;12.77;11.98;;;;;;;;;;4994476;28;20053;-58
2023/05/02 02:52:43;;;;;;;11.40;10.70;;;;;;;;;;4999666;28;20097;-48
2023/05/02 02:55:28;;;;;;;11.55;10.75;;;;;;;;;;4996026;28;20029;-51
2023/05/02 02:57:59;;;;;;;13.55;12.65;;;;;;;;;;4998796;28;20026;-49
2023/05/02 03:00:27;;;;;;;12.05;11.25;;;;;;;;;;4997248;28;20057;-51
2023/05/02 03:02:53;;;;;;;12.30;11.40;;;;;;;;;;4996877;28;20065;-59
2023/05/02 03:05:20;;;;;;;12.52;11.73;;;;;;;;;;4998498;28;20109;-59
2023/05/02 03:07:45;;;;;;;11.20;10.50;;;;;;;;;;4996439;28;20037;-59
2023/05/02 03:10:11;;;;;;;12.73;11.80;;;;;;;;;;5002369;28;20706;-60
2023/05/02 03:12:36;;;;;;;13.77;12.75;;;;;;;;;;4985567;28;20158;-48
2023/05/02 03:15:30;;;;;;;12.88;12.07;;;;;;;;;;5003504;28;20042;-49
2023/05/02 03:17:55;;;;;;;12.43;11.63;;;;;;;;;;5001588;28;20071;-53
2023/05/02 03:20:21;;;;;;;12.25;11.32;;;;;;;;;;4999399;28;20444;-52
2023/05/02 03:22:46;;;;;;;13.60;12.70;;;;;;;;;;4998207;28;20525;-49
2023/05/02 03:25:11;;;;;;;14.70;13.52;;;;;;;;;;5002357;28;20136;-49
2023/05/02 03:27:37;;;;;;;12.98;12.18;;;;;;;;;;5000540;28;20044;-59
2023/05/02 03:30:03;;;;;;;14.15;13.15;;;;;;;;;;4988784;28;20046;-59
2023/05/02 03:32:28;;;;;;;15.50;14.40;;;;;;;;;;5001362;28;20068;-59
2023/05/02 03:34:57;;;;;;;12.95;12.15;;;;;;;;;;5000329;28;20065;-60
2023/05/02 03:37:23;;;;;;;14.73;13.40;;;;;;;;;;5000296;28;20511;-59
2023/05/02 03:39:48;;;;;;;13.13;12.32;;;;;;;;;;5000279;28;20126;-59
2023/05/02 03:42:14;;;;;;;14.10;13.20;;;;;;;;;;4998267;28;20113;-60
2023/05/02 03:44:39;;;;;;;14.00;13.13;;;;;;;;;;4995659;28;20464;-59
2023/05/02 03:47:05;;;;;;;15.18;13.88;;;;;;;;;;4998133;28;20053;-58
2023/05/02 03:49:33;;;;;;;16.80;15.55;;;;;;;;;;4992530;28;20109;-48
2023/05/02 03:51:59;;;;;;;20.38;17.05;;;;;;;;;;5001044;28;20042;-59
2023/05/02 03:54:25;;;;;;;19.25;17.75;;;;;;;;;;4999040;28;20053;-59
2023/05/02 03:56:52;;;;;;;17.20;16.20;;;;;;;;;;4999789;28;20030;-59
2023/05/02 03:59:18;;;;;;;17.48;16.38;;;;;;;;;;5001294;28;20038;-51
2023/05/02 04:01:43;;;;;;;19.70;18.35;;;;;;;;;;4999202;28;20049;-59
2023/05/02 04:04:10;;;;;;;20.33;19.00;;;;;;;;;;5001164;28;20180;-59
2023/05/02 04:06:35;;;;;;;20.55;19.02;;;;;;;;;;4998177;28;20037;-59
2023/05/02 04:09:01;;;;;;;19.98;18.73;;;;;;;;;;4998565;28;20100;-59
2023/05/02 04:11:26;;;;;;;21.17;19.80;;;;;;;;;;4997330;28;20038;-60
2023/05/02 04:13:51;;;;;;;20.85;19.50;;;;;;;;;;5001162;28;20037;-59
2023/05/02 04:16:17;;;;;;;21.10;19.70;;;;;;;;;;5002050;28;20044;-59
2023/05/02 04:18:42;;;;;;;21.13;19.35;;;;;;;;;;4999234;28;20049;-59
2023/05/02 04:21:10;;;;;;;22.58;20.92;;;;;;;;;;4999393;28;20033;-59
2023/05/02 04:23:36;;;;;;;20.58;19.27;;;;;;;;;;5000051;28;20048;-51
2023/05/02 04:26:01;;;;;;;21.20;19.80;;;;;;;;;;4999807;28;20065;-48
2023/05/02 04:28:26;;;;;;;19.70;18.30;;;;;;;;;;4997028;28;20041;-50
2023/05/02 04:30:52;;;;;;;22.45;20.30;;;;;;;;;;5000090;28;20038;-59
2023/05/02 04:33:17;;;;;;;21.90;20.33;;;;;;;;;;4998826;28;20120;-59
2023/05/02 04:35:43;;;;;;;22.60;21.02;;;;;;;;;;4997694;28;20033;-59
2023/05/02 04:38:08;;;;;;;21.27;19.98;;;;;;;;;;4999703;28;20038;-49
2023/05/02 04:40:34;;;;;;;23.05;21.45;;;;;;;;;;4997499;28;20035;-60
2023/05/02 04:43:00;;;;;;;23.77;22.17;;;;;;;;;;4998210;28;20048;-59
2023/05/02 04:45:25;;;;;;;22.92;21.35;;;;;;;;;;5000548;28;20129;-48
2023/05/02 04:47:51;;;;;;;21.67;20.27;;;;;;;;;;5001531;28;20426;-52
2023/05/02 04:50:16;;;;;;;23.73;22.17;;;;;;;;;;5003113;28;20102;-59
2023/05/02 04:52:41;;;;;;;24.30;22.60;;;;;;;;;;5002205;28;20038;-60
2023/05/02 04:55:07;;;;;;;21.25;19.95;;;;;;;;;;5000364;28;20053;-52
2023/05/02 04:57:32;;;;;;;23.10;21.50;;;;;;;;;;4997440;28;20042;-49
2023/05/02 04:59:58;;;;;;;23.17;21.77;;;;;;;;;;4983749;28;20113;-50
2023/05/02 05:02:24;;;;;;;22.58;20.85;;;;;;;;;;4999970;28;20056;-52
2023/05/02 05:04:50;;;;;;;24.90;23.17;;;;;;;;;;4999482;28;20022;-48
2023/05/02 05:07:15;;;;;;;22.25;20.75;;;;;;;;;;4996007;28;20047;-49
2023/05/02 05:09:40;;;;;;;22.15;20.58;;;;;;;;;;4997956;28;20093;-52
2023/05/02 05:12:06;;;;;;;25.15;23.23;;;;;;;;;;4996253;28;20108;-52
2023/05/02 05:14:32;;;;;;;22.63;21.05;;;;;;;;;;4994395;28;20057;-48
2023/05/02 05:16:58;;;;;;;25.63;24.02;;;;;;;;;;4996756;28;20108;-51
2023/05/02 05:19:23;;;;;;;24.10;22.50;;;;;;;;;;4997557;28;20038;-59
2023/05/02 05:21:49;;;;;;;24.17;22.73;;;;;;;;;;4999210;28;20178;-59
2023/05/02 05:24:14;;;;;;;24.08;22.48;;;;;;;;;;4997823;28;20065;-58
2023/05/02 05:26:40;;;;;;;24.90;23.48;;;;;;;;;;4998645;28;20069;-59
2023/05/02 05:29:06;;;;;;;25.75;24.20;;;;;;;;;;5000721;28;20392;-59
2023/05/02 05:31:32;;;;;;;26.15;24.30;;;;;;;;;;4995802;28;20042;-48
2023/05/02 05:33:57;;;;;;;25.13;23.52;;;;;;;;;;4997553;28;20041;-51
2023/05/02 05:36:22;;;;;;;26.10;24.45;;;;;;;;;;5000753;28;20582;-48
2023/05/02 05:38:48;;;;;;;25.85;23.77;;;;;;;;;;5000767;28;20400;-51
2023/05/02 05:41:13;;;;;;;25.48;24.02;;;;;;;;;;4997023;28;20042;-58
2023/05/02 05:43:38;;;;;;;27.00;25.25;;;;;;;;;;4995332;28;20070;-58
2023/05/02 05:46:04;;;;;;;24.45;22.85;;;;;;;;;;4999050;28;20117;-58
2023/05/02 05:48:30;;;;;;;25.60;23.75;;;;;;;;;;4991101;28;20399;-60
2023/05/02 05:50:55;;;;;;;26.63;24.60;;;;;;;;;;4998988;28;20113;-59
2023/05/02 05:53:20;;;;;;;24.92;23.17;;;;;;;;;;4998747;28;20038;-59
2023/05/02 05:55:46;;;;;;;26.08;24.17;;;;;;;;;;4994675;28;20038;-59
2023/05/02 05:58:12;;;;;;;28.15;26.38;;;;;;;;;;4996216;28;20033;-60
2023/05/02 06:00:38;;;;;;;27.55;25.42;;;;;;;;;;4999060;28;20130;-60
2023/05/02 06:03:04;;;;;;;26.95;25.25;;;;;;;;;;4996995;28;20137;-59
2023/05/02 06:05:30;;;;;;;27.85;26.05;;;;;;;;;;4995823;28;20145;-59
2023/05/02 06:07:56;;;;;;;28.70;26.50;;;;;;;;;;4995161;28;20030;-59
2023/05/02 06:10:22;;;;;;;25.50;23.90;;;;;;;;;;4999372;28;20522;-59
2023/05/02 06:12:47;;;;;;;27.45;25.73;;;;;;;;;;4997381;28;20049;-60
2023/05/02 06:15:12;;;;;;;26.88;25.25;;;;;;;;;;4999065;28;20046;-59
2023/05/02 06:17:38;;;;;;;28.48;26.77;;;;;;;;;;4999406;28;20076;-60
2023/05/02 06:20:04;;;;;;;27.92;26.13;;;;;;;;;;4995498;28;20065;-48
2023/05/02 06:22:30;;;;;;;24.83;23.25;;;;;;;;;;4998999;28;20048;-59
2023/05/02 06:24:55;;;;;;;26.05;24.20;;;;;;;;;;4996942;28;20046;-48
2023/05/02 06:27:21;;;;;;;23.83;22.25;;;;;;;;;;4996589;28;20088;-48
2023/05/02 06:29:49;;;;;;;23.90;22.27;;;;;;;;;;4996675;28;20057;-47
2023/05/02 06:32:14;;;;;;;23.75;22.23;;;;;;;;;;4998839;28;20641;-59
2023/05/02 06:34:40;;;;;;;22.38;20.88;;;;;;;;;;4998517;28;20124;-60
2023/05/02 06:37:05;;;;;;;24.13;18.60;;;;;;;;;;4998325;28;20046;-49
2023/05/02 06:39:32;;;;;;;17.60;16.40;;;;;;;;;;4998969;28;20040;-60
2023/05/02 06:41:58;;;;;;;16.40;14.95;;;;;;;;;;4999196;28;20443;-60
2023/05/02 06:44:23;;;;;;;16.65;15.40;;;;;;;;;;4998933;28;20042;-61
2023/05/02 06:46:49;;;;;;;15.85;14.75;;;;;;;;;;4999804;28;20443;-60
2023/05/02 06:49:14;;;;;;;15.95;14.75;;;;;;;;;;5000432;28;20044;-60
2023/05/02 06:51:40;;;;;;;15.77;14.45;;;;;;;;;;4998807;28;20045;-48
2023/05/02 06:54:05;;;;;;;18.40;16.48;;;;;;;;;;5002233;28;20076;-60
2023/05/02 06:56:31;;;;;;;16.58;15.30;;;;;;;;;;4998480;28;20038;-60
2023/05/02 06:58:56;;;;;;;16.85;15.45;;;;;;;;;;4996993;28;20045;-49
2023/05/02 07:01:22;;;;;;;16.60;15.25;;;;;;;;;;5001017;28;20043;-49
2023/05/02 07:03:47;;;;;;;15.70;14.25;;;;;;;;;;4999140;28;20045;-48
2023/05/02 07:06:13;;;;;;;14.63;13.55;;;;;;;;;;5000981;28;20412;-51
2023/05/02 07:08:38;;;;;;;16.15;14.65;;;;;;;;;;4999725;28;20443;-49
2023/05/02 07:11:03;;;;;;;16.60;15.25;;;;;;;;;;5004252;28;20113;-51
2023/05/02 07:13:29;;;;;;;16.05;14.95;;;;;;;;;;5000185;28;20741;-60
2023/05/02 07:15:55;;;;;;;16.45;15.13;;;;;;;;;;5000742;28;20034;-60
2023/05/02 07:18:20;;;;;;;17.60;16.38;;;;;;;;;;4997906;28;20046;-62
2023/05/02 07:20:46;;;;;;;17.83;16.52;;;;;;;;;;4998683;28;20092;-60
2023/05/02 07:23:11;;;;;;;19.88;18.65;;;;;;;;;;5001053;28;20038;-60
2023/05/02 07:25:37;;;;;;;20.05;18.85;;;;;;;;;;5000355;28;20034;-60
2023/05/02 07:28:03;;;;;;;22.90;21.45;;;;;;;;;;4998979;28;20622;-60
2023/05/02 07:30:28;;;;;;;23.00;21.40;;;;;;;;;;4999651;28;20050;-60
2023/05/02 07:32:53;;;;;;;25.38;23.42;;;;;;;;;;5000016;28;20057;-60
2023/05/02 07:35:19;;;;;;;22.58;21.00;;;;;;;;;;5002264;28;20033;-61
2023/05/02 07:37:44;;;;;;;18.50;17.08;;;;;;;;;;4987759;28;20052;-60
2023/05/02 07:40:10;;;;;;;19.02;17.83;;;;;;;;;;4999315;28;20038;-60
2023/05/02 07:42:35;;;;;;;21.08;19.77;;;;;;;;;;4996834;28;20104;-60
2023/05/02 07:45:00;;;;;;;19.75;18.48;;;;;;;;;;4996331;28;20209;-60
2023/05/02 07:47:26;;;;;;;22.48;21.15;;;;;;;;;;5001441;28;20530;-61
2023/05/02 07:49:53;;;;;;;21.90;20.48;;;;;;;;;;4987924;28;20625;-60
2023/05/02 07:52:19;;;;;;;22.23;20.90;;;;;;;;;;5000045;28;20041;-60
2023/05/02 07:54:44;;;;;;;21.42;20.23;;;;;;;;;;4995987;28;20038;-60
2023/05/02 07:57:11;;;;;;;20.35;19.15;;;;;;;;;;4998405;28;20049;-60
2023/05/02 07:59:37;;;;;;;22.92;21.52;;;;;;;;;;4988584;28;20484;-60
2023/05/02 08:02:03;;;;;;;23.73;22.15;;;;;;;;;;4998033;28;20084;-60
2023/05/02 08:04:29;;;;;;;22.77;21.27;;;;;;;;;;4998809;28;20030;-60
2023/05/02 08:06:55;;;;;;;21.38;20.08;;;;;;;;;;4998158;28;20402;-60
2023/05/02 08:09:20;;;;;;;21.77;20.48;;;;;;;;;;4981731;28;20051;-60
2023/05/02 08:11:45;;;;;;;19.92;18.63;;;;;;;;;;4997639;28;20034;-60
2023/05/02 08:14:11;;;;;;;21.63;20.33;;;;;;;;;;4999105;28;20372;-60
2023/05/02 08:16:37;;;;;;;20.30;19.08;;;;;;;;;;5001625;28;20066;-60
2023/05/02 08:19:02;;;;;;;20.30;19.00;;;;;;;;;;4999383;28;20049;-63
2023/05/02 08:21:28;;;;;;;20.17;18.77;;;;;;;;;;4998352;28;20036;-60
2023/05/02 08:23:57;;;;;;;21.33;19.92;;;;;;;;;;5000115;28;20045;-60
2023/05/02 08:26:23;;;;;;;19.15;17.90;;;;;;;;;;4985931;28;20053;-60
2023/05/02 08:28:50;;;;;;;20.35;19.15;;;;;;;;;;4997890;28;20061;-60
2023/05/02 08:31:15;;;;;;;18.17;17.08;;;;;;;;;;4998896;28;20034;-60
2023/05/02 08:33:42;;;;;;;17.90;16.70;;;;;;;;;;4998656;28;20048;-61
2023/05/02 08:36:12;;;;;;;19.40;18.20;;;;;;;;;;4999094;28;20049;-60
2023/05/02 08:38:37;;;;;;;17.30;16.20;;;;;;;;;;4999093;28;20057;-60
2023/05/02 08:41:18;;;;;;;17.30;16.20;;;;;;;;;;4998418;28;20471;-60
2023/05/02 08:43:44;;;;;;;;;;;;;;;;;;4996998;28;20046;-60
2023/05/02 08:46:11;;;;;;;16.25;15.02;;;;;;;;;;4999551;28;19917;-60
2023/05/02 08:48:40;;;;;;;16.52;15.45;;;;;;;;;;4998937;28;20172;-60
2023/05/02 08:51:14;;;;;;;19.42;17.83;;;;;;;;;;5002105;28;20038;-60
2023/05/02 08:53:40;;;;;;;15.93;14.93;;;;;;;;;;4995893;28;20026;-60
2023/05/02 08:56:07;;;;;;;17.67;16.58;;;;;;;;;;4997628;28;20045;-60
2023/05/02 08:58:33;;;;;;;19.92;18.60;;;;;;;;;;4999129;28;20044;-60
2023/05/02 09:01:13;;;;;;;20.08;18.80;;;;;;;;;;4999889;28;20115;-60
2023/05/02 09:03:41;;;;;;;20.30;18.90;;;;;;;;;;4997875;28;20034;-60
2023/05/02 09:06:15;;;;;;;19.25;18.05;;;;;;;;;;4993374;28;20053;-61
2023/05/02 09:08:42;;;;;;;19.50;18.30;;;;;;;;;;4992572;28;20690;-60
2023/05/02 09:11:09;;;;;;;19.08;17.65;;;;;;;;;;4996292;28;20784;-60
2023/05/02 09:13:49;;;;;;;18.92;17.83;;;;;;;;;;4995841;28;20084;-60
2023/05/02 09:16:24;;;;;;;19.58;17.20;;;;;;;;;;4995646;28;20041;-60
2023/05/02 09:18:51;;;;;;;18.17;17.08;;;;;;;;;;4997759;28;20029;-60
2023/05/02 09:21:22;;;;;;;17.90;16.80;;;;;;;;;;4997406;28;20038;-60
2023/05/02 09:23:50;;;;;;;18.38;17.17;;;;;;;;;;4983529;28;20391;-58
2023/05/02 09:26:21;;;;;;;19.58;18.25;;;;;;;;;;4999166;28;20052;-59
2023/05/02 09:28:48;;;;;;;18.02;16.90;;;;;;;;;;4996258;28;20364;-59
2023/05/02 09:31:16;;;;;;;18.75;17.55;;;;;;;;;;4999722;28;20045;-59
2023/05/02 09:33:42;;;;;;;18.48;17.23;;;;;;;;;;4999643;28;20127;-59
2023/05/02 09:36:10;;;;;;;15.02;14.07;;;;;;;;;;4999970;28;20061;-59
2023/05/02 09:38:37;;;;;;;13.80;12.90;;;;;;;;;;4988782;28;20042;-59
2023/05/02 09:41:02;;;;;;;14.30;13.23;;;;;;;;;;4984674;28;20049;-59
2023/05/02 09:43:29;;;;;;;14.38;13.38;;;;;;;;;;4994166;28;20461;-59
2023/05/02 09:45:56;;;;;;;14.93;13.93;;;;;;;;;;4998739;28;20022;-59
2023/05/02 09:48:21;;;;;;;14.00;12.90;;;;;;;;;;4997261;28;20042;-60
2023/05/02 09:50:46;;;;;;;14.32;13.48;;;;;;;;;;4999503;28;20052;-60
2023/05/02 09:53:12;;;;;;;17.10;15.55;;;;;;;;;;4996040;28;20035;-60
2023/05/02 09:55:38;;;;;;;14.60;13.50;;;;;;;;;;4999477;28;20476;-60
2023/05/02 09:58:04;;;;;;;13.68;12.68;;;;;;;;;;4982424;28;20053;-60
2023/05/02 10:00:39;;;;;;;16.27;15.18;;;;;;;;;;5001061;28;20030;-60
2023/05/02 10:03:08;;;;;;;14.85;13.95;;;;;;;;;;4998865;28;20042;-61
2023/05/02 10:05:38;;;;;;;14.27;13.27;;;;;;;;;;4998119;28;20043;-61
2023/05/02 10:08:07;;;;;;;14.82;13.50;;;;;;;;;;4998208;28;20144;-60
2023/05/02 10:10:38;;;;;;;17.47;16.17;;;;;;;;;;4996569;28;20048;-60
2023/05/02 10:13:05;;;;;;;13.73;12.88;;;;;;;;;;5000494;28;20616;-60
2023/05/02 10:15:32;;;;;;;14.07;13.18;;;;;;;;;;4996628;28;20117;-60
2023/05/02 10:18:01;;;;;;;15.07;14.18;;;;;;;;;;4996629;28;20030;-60
2023/05/02 10:20:33;;;;;;;14.30;13.30;;;;;;;;;;4997648;28;20037;-60
2023/05/02 10:23:02;;;;;;;15.25;14.27;;;;;;;;;;4996000;28;20041;-60
2023/05/02 10:25:28;;;;;;;15.98;14.85;;;;;;;;;;4998287;28;20042;-60
2023/05/02 10:27:58;;;;;;;18.05;17.00;;;;;;;;;;4993976;28;20045;-60
2023/05/02 10:30:24;;;;;;;16.98;15.95;;;;;;;;;;4997012;28;20474;-60
2023/05/02 10:32:52;;;;;;;16.67;15.57;;;;;;;;;;4996826;28;20109;-59
2023/05/02 10:35:18;;;;;;;14.65;13.75;;;;;;;;;;4998747;28;20371;-60
2023/05/02 10:37:44;;;;;;;16.20;15.23;;;;;;;;;;4999101;28;20042;-60
2023/05/02 10:40:11;;;;;;;14.80;13.90;;;;;;;;;;4991378;28;20505;-60
2023/05/02 10:42:39;;;;;;;17.80;16.50;;;;;;;;;;5001101;28;20042;-59
2023/05/02 10:45:09;;;;;;;15.93;14.93;;;;;;;;;;4996900;28;20144;-60
2023/05/02 10:47:35;;;;;;;15.63;14.73;;;;;;;;;;4997364;28;20042;-59
2023/05/02 10:50:02;;;;;;;20.75;19.55;;;;;;;;;;4996039;28;20053;-59
2023/05/02 10:52:33;;;;;;;19.83;18.70;;;;;;;;;;4996068;28;20030;-59
2023/05/02 10:55:14;;;;;;;20.15;18.77;;;;;;;;;;4996653;28;20041;-61
2023/05/02 10:57:58;;;;;;;19.65;18.58;;;;;;;;;;4990940;28;20037;-60
2023/05/02 11:00:28;;;;;;;20.40;19.13;;;;;;;;;;4993094;28;20095;-60
2023/05/02 11:02:53;;;;;;;18.73;17.67;;;;;;;;;;4994265;28;20053;-60
2023/05/02 11:05:21;;;;;;;18.90;17.83;;;;;;;;;;4995300;28;20026;-60
2023/05/02 11:07:46;;;;;;;19.17;18.08;;;;;;;;;;4995545;28;20049;-59
2023/05/02 11:10:15;;;;;;;20.35;18.83;;;;;;;;;;4994760;28;20428;-61
2023/05/02 11:13:00;;;;;;;19.85;18.65;;;;;;;;;;4995899;28;20061;-61
2023/05/02 11:15:28;;;;;;;19.25;18.15;;;;;;;;;;4996500;28;20021;-60
2023/05/02 11:18:02;;;;;;;18.38;17.38;;;;;;;;;;4995083;28;20045;-54
2023/05/02 11:20:28;;;;;;;17.13;16.13;;;;;;;;;;4981631;28;20411;-51
2023/05/02 11:22:55;;;;;;;16.67;15.68;;;;;;;;;;4994129;28;20054;-52
2023/05/02 11:25:32;;;;;;;18.20;17.20;;;;;;;;;;4991616;28;20437;-53
2023/05/02 11:27:57;;;;;;;20.33;19.23;;;;;;;;;;4993471;28;20365;-60
2023/05/02 11:30:40;;;;;;;21.67;20.52;;;;;;;;;;4994714;28;20053;-61
2023/05/02 11:33:05;;;;;;;18.85;17.80;;;;;;;;;;5000508;28;20034;-61
2023/05/02 11:35:34;;;;;;;19.60;18.50;;;;;;;;;;4998786;28;20044;-61
2023/05/02 11:38:06;;;;;;;24.38;23.08;;;;;;;;;;4995034;28;20041;-63
2023/05/02 11:40:31;;;;;;;28.30;26.80;;;;;;;;;;4995282;28;20046;-60
2023/05/02 11:42:59;;;;;;;29.55;27.98;;;;;;;;;;4998095;28;20057;-60
2023/05/02 11:45:35;;;;;;;29.58;28.00;;;;;;;;;;4999229;28;20837;-60
2023/05/02 11:48:02;;;;;;;32.45;30.75;;;;;;;;;;5000085;28;20042;-60
2023/05/02 11:50:29;;;;;;;33.17;31.40;;;;;;;;;;5000129;28;20034;-64
2023/05/02 11:52:54;;;;;;;35.08;33.25;;;;;;;;;;4996015;28;20077;-62
2023/05/02 11:55:20;;;;;;;37.40;35.50;;;;;;;;;;4999547;28;21322;-63
2023/05/02 11:57:48;;;;;;;32.35;30.65;;;;;;;;;;4998753;28;20034;-61
2023/05/02 12:00:14;;;;;;;37.85;35.88;;;;;;;;;;5000886;28;20068;-61
2023/05/02 12:02:44;;;;;;;34.28;32.47;;;;;;;;;;5000567;28;20029;-61
2023/05/02 12:05:12;;;;;;;34.92;33.13;;;;;;;;;;5000858;28;20029;-59
2023/05/02 12:07:39;;;;;;;40.55;38.50;;;;;;;;;;4998942;28;20735;-58
2023/05/02 12:10:08;;;;;;;42.20;39.95;;;;;;;;;;4996394;28;20116;-60
2023/05/02 12:12:34;;;;;;;43.22;41.00;;;;;;;;;;4999838;28;20042;-60
2023/05/02 12:15:08;;;;;;;44.13;41.88;;;;;;;;;;4998904;28;20043;-59
2023/05/02 12:17:37;;;;;;;31.95;30.27;;;;;;;;;;5003994;28;20045;-60
2023/05/02 12:20:04;;;;;;;28.48;26.98;;;;;;;;;;4999253;28;20030;-59
2023/05/02 12:22:30;;;;;;;30.73;29.13;;;;;;;;;;4979686;28;20050;-48
2023/05/02 12:24:55;;;;;;;28.65;27.15;;;;;;;;;;4982579;28;20049;-46
2023/05/02 12:27:21;;;;;;;26.98;25.52;;;;;;;;;;4999823;28;20622;-48
2023/05/02 12:29:48;;;;;;;24.90;23.52;;;;;;;;;;4995062;28;20036;-59
2023/05/02 12:32:25;;;;;;;25.67;24.30;;;;;;;;;;4999037;28;20353;-59
2023/05/02 12:34:51;;;;;;;24.70;23.13;;;;;;;;;;5000884;28;20022;-60
2023/05/02 12:37:23;;;;;;;26.23;24.83;;;;;;;;;;4995658;28;20038;-49
2023/05/02 12:39:48;;;;;;;19.20;18.10;;;;;;;;;;4997946;28;20041;-60
2023/05/02 12:42:15;;;;;;;17.17;16.17;;;;;;;;;;4997992;28;20092;-60
2023/05/02 12:44:45;;;;;;;18.50;17.40;;;;;;;;;;4997731;28;20030;-59
2023/05/02 12:47:12;;;;;;;18.40;17.30;;;;;;;;;;5004487;28;20069;-48
2023/05/02 12:49:51;;;;;;;19.20;18.05;;;;;;;;;;4997347;28;20038;-60
2023/05/02 12:52:17;;;;;;;19.23;18.17;;;;;;;;;;4998755;28;20399;-48
2023/05/02 12:54:43;;;;;;;19.30;18.20;;;;;;;;;;4999061;28;20731;-52
2023/05/02 12:57:09;;;;;;;17.20;16.20;;;;;;;;;;5000361;28;20042;-52
2023/05/02 12:59:35;;;;;;;18.88;17.77;;;;;;;;;;5000000;28;20091;-60
2023/05/02 13:02:00;;;;;;;18.05;16.90;;;;;;;;;;4996517;28;20054;-52
2023/05/02 13:04:42;;;;;;;17.40;16.27;;;;;;;;;;4998951;28;20480;-50
2023/05/02 13:07:07;;;;;;;16.65;15.65;;;;;;;;;;4997470;28;20096;-52
2023/05/02 13:09:33;;;;;;;15.98;15.07;;;;;;;;;;5001798;28;20030;-51
2023/05/02 13:11:58;;;;;;;19.38;18.23;;;;;;;;;;4997675;28;20086;-61
2023/05/02 13:14:24;;;;;;;17.50;16.50;;;;;;;;;;4996503;28;20116;-61
2023/05/02 13:16:52;;;;;;;19.80;18.67;;;;;;;;;;4979718;28;20112;-53
2023/05/02 13:19:18;;;;;;;16.25;15.35;;;;;;;;;;5001083;28;20076;-50
2023/05/02 13:21:43;;;;;;;17.73;16.60;;;;;;;;;;4998516;28;20462;-53
2023/05/02 13:24:09;;;;;;;16.05;15.15;;;;;;;;;;5001418;28;20033;-53
2023/05/02 13:26:35;;;;;;;18.00;17.00;;;;;;;;;;4998335;28;20706;-49
2023/05/02 13:29:00;;;;;;;17.38;16.38;;;;;;;;;;4998279;28;20602;-61
2023/05/02 13:31:25;;;;;;;17.77;16.67;;;;;;;;;;5000241;28;20046;-61
2023/05/02 13:33:51;;;;;;;18.35;17.35;;;;;;;;;;4998188;28;20065;-60
2023/05/02 13:36:16;;;;;;;16.73;15.77;;;;;;;;;;4981603;28;20071;-52
2023/05/02 13:38:42;;;;;;;16.45;15.48;;;;;;;;;;4998703;28;20041;-49
2023/05/02 13:41:07;;;;;;;14.90;14.07;;;;;;;;;;4996453;28;20115;-51
2023/05/02 13:43:32;;;;;;;13.38;12.57;;;;;;;;;;4998403;28;20031;-51
2023/05/02 13:45:57;;;;;;;13.90;12.90;;;;;;;;;;4992680;28;20038;-48
2023/05/02 13:48:24;;;;;;;14.65;13.75;;;;;;;;;;4997534;28;20030;-49
2023/05/02 13:50:49;;;;;;;14.75;13.88;;;;;;;;;;4994815;28;20112;-48
2023/05/02 13:53:15;;;;;;;14.23;13.43;;;;;;;;;;4996893;28;20100;-49
2023/05/02 13:55:40;;;;;;;15.13;14.23;;;;;;;;;;4995615;28;20034;-51
2023/05/02 13:58:06;;;;;;;14.65;13.75;;;;;;;;;;4998883;28;20487;-47
2023/05/02 14:00:31;;;;;;;16.98;15.98;;;;;;;;;;4995961;28;20045;-49
2023/05/02 14:02:56;;;;;;;14.95;14.13;;;;;;;;;;4998647;28;20038;-51
2023/05/02 14:05:22;;;;;;;14.20;13.40;;;;;;;;;;4998065;28;20030;-51
2023/05/02 14:07:47;;;;;;;14.52;13.63;;;;;;;;;;4980824;28;20463;-49
2023/05/02 14:10:12;;;;;;;14.65;13.77;;;;;;;;;;4996583;28;20033;-48
2023/05/02 14:12:38;;;;;;;14.77;13.80;;;;;;;;;;4996048;28;20125;-54
2023/05/02 14:15:04;;;;;;;15.38;14.43;;;;;;;;;;4996230;28;20117;-49
2023/05/02 14:17:31;;;;;;;14.05;13.25;;;;;;;;;;4999763;28;20030;-56
2023/05/02 14:19:56;;;;;;;16.27;15.13;;;;;;;;;;4998813;28;20116;-52
2023/05/02 14:22:22;;;;;;;16.25;15.32;;;;;;;;;;4998885;28;20030;-50